Peterborough Airport
CYPQ : now visible

Airfield :











YOU CAN JOIN US ON...

 
LOGIN :

Register | Disclaimer

   EN    FR    IT 

 









Legend :    VFR   Marginal VFR   IFR   Intensive IFR   Very Intensive IFR
Visi :
Ceiling :
>= 8 km
>= 3000ft
5 to 8 km
1000 to 3000 ft
1500m to 5 km
500 to 1000 ft
800 to 1500m
200 to 500 ft
< 800m
< 200 ft
Symbols :   Thunderstorms  Fog  Heavy snow  Heavy precipitations  Wind > 20 kt






- Airport Elevation : 628 ft
- IATA code : YPQ


CYPQ - Peterborough

CURRENT METAR :
  • 142014Z AUTO 31014KT 5SM -SN OVC024 01/01 A2928 RMK SLP923

EXPIRED METARs :
  • 142000Z AUTO 31010G16KT 7SM -SN OVC026 01/01 A2928 RMK SLP925
  • 141943Z AUTO 32012G17KT 6SM -SN OVC028 01/01 A2928 RMK SLP925
  • 141924Z AUTO 32011G19KT 4SM -SN OVC028 02/02 A2929 RMK SLP927
  • 141918Z AUTO 32013G19KT 4SM RASN -UP OVC028 02/02 A2929 RMK SLP927
  • 141900Z AUTO 32015G21KT 9SM -RA FEW023 OVC033 02/02 A2929 RMK SLP926
  • 141816Z AUTO 33013G19KT 9SM -RA SCT008 SCT023 OVC033 02/02 A2931 RMK PRESFR SLP933
  • 141808Z AUTO 33013KT 9SM -RA SCT008 BKN012 BKN023 OVC031 02/02 A2932 RMK PRESFR SLP937

TAF TAF CYPQ
Valid from the 14 at 20:00 until the 15 at 03:00 UTC


141938Z 1420/1503 34015G25KT 1SM -RASN BR OVC010
TEMPO 1420/1501 6SM BR OVC025
FM150100 30015G25KT 3SM -SHSN OVC008 RMK FCST BASED ON AUTO OBS. NXT FCST WILL BE ISSUED AT 151045Z



MET'MAP, your aeronautical weather chart ! - Copyright ORBIFLY December 2007 - Disclaimer

ORBIFLY MET'MAP TEAM :

Programming & Development : Alexandra Zaïnal
Concept & original design : Baudouin d'Aumeries
Assistance for programming : Marc-Olivier Méhu
Technical & hardware support : Manuel Goepfert

Contact : metmap@orbifly.com




SOURCES & CREDITS :

   NOAA       Earth
Advisory